sensor_id;sensor_type;location;lat;lon;timestamp;pressure;altitude;pressure_sealevel;temperature;humidity
60583;BME280;46415;47.536;19.066;2023-04-05T00:02:22;100725.91;;;1.17;60.14
60583;BME280;46415;47.536;19.066;2023-04-05T00:05:29;100720.78;;;1.17;59.88
60583;BME280;46415;47.536;19.066;2023-04-05T00:08:31;100725.03;;;1.21;60.03
60583;BME280;46415;47.536;19.066;2023-04-05T00:11:34;100719.94;;;1.31;59.44
60583;BME280;46415;47.536;19.066;2023-04-05T00:14:36;100718.22;;;1.23;60.77
60583;BME280;46415;47.536;19.066;2023-04-05T00:17:39;100713.12;;;1.16;61.85
60583;BME280;46415;47.536;19.066;2023-04-05T00:20:42;100719.06;;;1.13;61.75
60583;BME280;46415;47.536;19.066;2023-04-05T00:23:45;100713.97;;;1.12;61.71
60583;BME280;46415;47.536;19.066;2023-04-05T00:26:47;100715.66;;;1.08;61.89
60583;BME280;46415;47.536;19.066;2023-04-05T00:29:50;100706.31;;;1.10;61.31
60583;BME280;46415;47.536;19.066;2023-04-05T00:32:52;100705.44;;;1.14;61.24
60583;BME280;46415;47.536;19.066;2023-04-05T00:35:55;100702.88;;;1.14;60.26
60583;BME280;46415;47.536;19.066;2023-04-05T00:38:58;100708.84;;;1.21;60.29
60583;BME280;46415;47.536;19.066;2023-04-05T00:42:01;100712.28;;;1.18;60.63
60583;BME280;46415;47.536;19.066;2023-04-05T00:45:04;100708.84;;;1.19;60.49
60583;BME280;46415;47.536;19.066;2023-04-05T00:48:07;100711.41;;;1.10;61.43
60583;BME280;46415;47.536;19.066;2023-04-05T00:51:09;100701.19;;;1.06;63.21
60583;BME280;46415;47.536;19.066;2023-04-05T00:54:13;100709.69;;;1.09;62.02
60583;BME280;46415;47.536;19.066;2023-04-05T00:57:16;100716.53;;;1.01;63.23
60583;BME280;46415;47.536;19.066;2023-04-05T01:00:19;100709.69;;;1.02;62.43
60583;BME280;46415;47.536;19.066;2023-04-05T01:03:22;100706.31;;;1.04;61.43
60583;BME280;46415;47.536;19.066;2023-04-05T01:06:37;100702.03;;;1.03;62.28
60583;BME280;46415;47.536;19.066;2023-04-05T01:10:03;100708.00;;;1.02;62.20
60583;BME280;46415;47.536;19.066;2023-04-05T01:13:08;100702.03;;;0.99;62.17
60583;BME280;46415;47.536;19.066;2023-04-05T01:16:11;100702.88;;;0.90;63.22
60583;BME280;46415;47.536;19.066;2023-04-05T01:19:14;100701.19;;;0.97;61.73
60583;BME280;46415;47.536;19.066;2023-04-05T01:35:46;100702.88;;;0.75;65.87
60583;BME280;46415;47.536;19.066;2023-04-05T01:38:52;100695.22;;;0.70;66.79
60583;BME280;46415;47.536;19.066;2023-04-05T01:41:59;100698.59;;;0.63;68.42
60583;BME280;46415;47.536;19.066;2023-04-05T01:45:02;100700.28;;;0.61;69.00
60583;BME280;46415;47.536;19.066;2023-04-05T01:48:06;100691.78;;;0.53;70.15
60583;BME280;46415;47.536;19.066;2023-04-05T01:51:09;100695.16;;;0.51;70.41
60583;BME280;46415;47.536;19.066;2023-04-05T01:54:11;100690.91;;;0.53;70.54
60583;BME280;46415;47.536;19.066;2023-04-05T01:57:14;100694.31;;;0.46;71.21
60583;BME280;46415;47.536;19.066;2023-04-05T02:00:16;100693.44;;;0.44;72.08
60583;BME280;46415;47.536;19.066;2023-04-05T02:03:19;100695.16;;;0.45;71.63
60583;BME280;46415;47.536;19.066;2023-04-05T02:06:22;100695.97;;;0.34;72.34
60583;BME280;46415;47.536;19.066;2023-04-05T02:09:25;100698.50;;;0.36;73.28
60583;BME280;46415;47.536;19.066;2023-04-05T02:12:27;100700.22;;;0.31;72.34
60583;BME280;46415;47.536;19.066;2023-04-05T02:15:30;100695.94;;;0.30;72.18
60583;BME280;46415;47.536;19.066;2023-04-05T02:18:35;100691.69;;;0.27;73.07
60583;BME280;46415;47.536;19.066;2023-04-05T02:21:40;100693.38;;;0.30;72.89
60583;BME280;46415;47.536;19.066;2023-04-05T02:24:43;100695.06;;;0.20;72.50
60583;BME280;46415;47.536;19.066;2023-04-05T02:27:46;100693.34;;;0.13;74.17
60583;BME280;46415;47.536;19.066;2023-04-05T02:30:49;100693.34;;;0.13;73.50
60583;BME280;46415;47.536;19.066;2023-04-05T02:33:51;100695.88;;;0.07;74.50
60583;BME280;46415;47.536;19.066;2023-04-05T02:36:55;100687.41;;;0.16;74.27
60583;BME280;46415;47.536;19.066;2023-04-05T02:39:58;100689.94;;;0.10;74.32
60583;BME280;46415;47.536;19.066;2023-04-05T02:43:01;100685.63;;;0.01;76.06
60583;BME280;46415;47.536;19.066;2023-04-05T02:46:03;100682.19;;;-0.10;77.67
60583;BME280;46415;47.536;19.066;2023-04-05T02:49:06;100689.03;;;-0.06;76.00
60583;BME280;46415;47.536;19.066;2023-04-05T02:52:09;100688.13;;;-0.14;76.03
60583;BME280;46415;47.536;19.066;2023-04-05T02:55:12;100677.09;;;-0.10;75.87
60583;BME280;46415;47.536;19.066;2023-04-05T02:58:15;100675.34;;;-0.22;76.82
60583;BME280;46415;47.536;19.066;2023-04-05T03:01:18;100677.87;;;-0.25;76.87
60583;BME280;46415;47.536;19.066;2023-04-05T03:04:22;100681.25;;;-0.30;77.26
60583;BME280;46415;47.536;19.066;2023-04-05T03:07:28;100673.59;;;-0.36;77.62
60583;BME280;46415;47.536;19.066;2023-04-05T03:10:32;100676.94;;;-0.41;78.32
60583;BME280;46415;47.536;19.066;2023-04-05T03:13:38;100682.84;;;-0.46;78.75
60583;BME280;46415;47.536;19.066;2023-04-05T03:16:41;100682.03;;;-0.44;78.05
60583;BME280;46415;47.536;19.066;2023-04-05T03:19:44;100682.84;;;-0.48;78.93
60583;BME280;46415;47.536;19.066;2023-04-05T03:22:48;100690.47;;;-0.48;78.82
60583;BME280;46415;47.536;19.066;2023-04-05T03:25:52;100681.97;;;-0.53;79.53
60583;BME280;46415;47.536;19.066;2023-04-05T03:28:55;100691.31;;;-0.55;80.43
60583;BME280;46415;47.536;19.066;2023-04-05T03:31:58;100695.53;;;-0.60;80.60
60583;BME280;46415;47.536;19.066;2023-04-05T03:35:01;100696.38;;;-0.58;80.26
60583;BME280;46415;47.536;19.066;2023-04-05T03:38:04;100695.47;;;-0.64;80.19
60583;BME280;46415;47.536;19.066;2023-04-05T03:41:08;100698.03;;;-0.66;80.71
60583;BME280;46415;47.536;19.066;2023-04-05T03:44:10;100696.31;;;-0.65;81.42
60583;BME280;46415;47.536;19.066;2023-04-05T03:47:13;100699.72;;;-0.66;81.17
60583;BME280;46415;47.536;19.066;2023-04-05T03:50:17;100703.97;;;-0.67;81.74
60583;BME280;46415;47.536;19.066;2023-04-05T03:53:19;100702.25;;;-0.68;81.68
60583;BME280;46415;47.536;19.066;2023-04-05T03:56:22;100700.53;;;-0.72;80.91
60583;BME280;46415;47.536;19.066;2023-04-05T03:59:25;100706.50;;;-0.70;81.22
60583;BME280;46415;47.536;19.066;2023-04-05T04:02:28;100707.31;;;-0.74;81.46
60583;BME280;46415;47.536;19.066;2023-04-05T04:05:31;100710.72;;;-0.73;81.75
60583;BME280;46415;47.536;19.066;2023-04-05T04:08:40;100712.41;;;-0.71;82.41
60583;BME280;46415;47.536;19.066;2023-04-05T04:11:43;100711.56;;;-0.74;82.01
60583;BME280;46415;47.536;19.066;2023-04-05T04:14:47;100708.13;;;-0.79;81.63
60583;BME280;46415;47.536;19.066;2023-04-05T04:17:50;100714.06;;;-0.79;81.46
60583;BME280;46415;47.536;19.066;2023-04-05T04:20:54;100706.41;;;-0.77;81.24
60583;BME280;46415;47.536;19.066;2023-04-05T04:24:00;100715.00;;;-0.69;81.52
60583;BME280;46415;47.536;19.066;2023-04-05T04:27:10;100718.41;;;-0.64;80.55
60583;BME280;46415;47.536;19.066;2023-04-05T04:30:13;100718.47;;;-0.61;80.13
60583;BME280;46415;47.536;19.066;2023-04-05T04:33:17;100716.72;;;-0.65;80.26
60583;BME280;46415;47.536;19.066;2023-04-05T04:36:24;100720.97;;;-0.63;80.76
60583;BME280;46415;47.536;19.066;2023-04-05T04:39:37;100711.66;;;-0.59;80.75
60583;BME280;46415;47.536;19.066;2023-04-05T04:42:42;100716.75;;;-0.58;80.76
60583;BME280;46415;47.536;19.066;2023-04-05T04:45:48;100716.81;;;-0.52;80.41
60583;BME280;46415;47.536;19.066;2023-04-05T04:48:52;100716.88;;;-0.44;79.95
60583;BME280;46415;47.536;19.066;2023-04-05T04:51:57;100716.84;;;-0.47;80.87
60583;BME280;46415;47.536;19.066;2023-04-05T04:55:01;100715.19;;;-0.44;80.75
60583;BME280;46415;47.536;19.066;2023-04-05T04:58:07;100719.44;;;-0.39;80.65
60583;BME280;46415;47.536;19.066;2023-04-05T05:01:15;100725.44;;;-0.36;80.60
60583;BME280;46415;47.536;19.066;2023-04-05T05:04:17;100719.47;;;-0.35;80.24
60583;BME280;46415;47.536;19.066;2023-04-05T05:07:20;100731.38;;;-0.29;80.22
60583;BME280;46415;47.536;19.066;2023-04-05T05:10:23;100732.22;;;-0.33;80.33
60583;BME280;46415;47.536;19.066;2023-04-05T05:13:26;100725.53;;;-0.19;79.74
60583;BME280;46415;47.536;19.066;2023-04-05T05:16:29;100730.66;;;-0.13;77.94
60583;BME280;46415;47.536;19.066;2023-04-05T05:19:32;100734.97;;;0.02;77.73
60583;BME280;46415;47.536;19.066;2023-04-05T05:22:34;100734.97;;;0.06;76.93
60583;BME280;46415;47.536;19.066;2023-04-05T05:25:37;100738.50;;;0.23;76.18
60583;BME280;46415;47.536;19.066;2023-04-05T05:28:40;100742.75;;;0.29;74.99
60583;BME280;46415;47.536;19.066;2023-04-05T05:31:42;100740.25;;;0.41;74.82
60583;BME280;46415;47.536;19.066;2023-04-05T05:34:45;100747.06;;;0.50;74.36
60583;BME280;46415;47.536;19.066;2023-04-05T05:37:50;100748.00;;;0.65;73.57
60583;BME280;46415;47.536;19.066;2023-04-05T05:40:55;100746.34;;;0.95;71.20
60583;BME280;46415;47.536;19.066;2023-04-05T05:43:59;100734.41;;;1.10;69.48
60583;BME280;46415;47.536;19.066;2023-04-05T05:47:01;100740.38;;;1.15;68.72
60583;BME280;46415;47.536;19.066;2023-04-05T05:50:05;100736.97;;;1.26;67.31
60583;BME280;46415;47.536;19.066;2023-04-05T05:53:08;100742.94;;;1.43;66.52
60583;BME280;46415;47.536;19.066;2023-04-05T05:56:11;100738.63;;;1.61;66.69
60583;BME280;46415;47.536;19.066;2023-04-05T05:59:13;100736.09;;;1.64;63.54
60583;BME280;46415;47.536;19.066;2023-04-05T06:02:16;100732.63;;;1.81;62.34
60583;BME280;46415;47.536;19.066;2023-04-05T06:05:19;100734.34;;;1.82;62.29
60583;BME280;46415;47.536;19.066;2023-04-05T06:08:22;100738.59;;;1.87;61.33
60583;BME280;46415;47.536;19.066;2023-04-05T06:11:25;100742.78;;;2.11;60.44
60583;BME280;46415;47.536;19.066;2023-04-05T06:14:28;100740.12;;;2.34;58.44
60583;BME280;46415;47.536;19.066;2023-04-05T06:17:33;100739.19;;;2.55;58.05
60583;BME280;46415;47.536;19.066;2023-04-05T06:20:42;100741.75;;;2.53;56.85
60583;BME280;46415;47.536;19.066;2023-04-05T06:23:46;100743.41;;;2.63;56.19
60583;BME280;46415;47.536;19.066;2023-04-05T06:26:49;100745.16;;;2.58;55.50
60583;BME280;46415;47.536;19.066;2023-04-05T06:29:52;100742.56;;;2.64;55.50
60583;BME280;46415;47.536;19.066;2023-04-05T06:32:56;100742.56;;;2.64;52.98
60583;BME280;46415;47.536;19.066;2023-04-05T06:35:59;100739.03;;;2.82;53.72
60583;BME280;46415;47.536;19.066;2023-04-05T06:39:02;100745.84;;;2.84;51.91
60583;BME280;46415;47.536;19.066;2023-04-05T06:42:05;100750.88;;;2.98;49.90
60583;BME280;46415;47.536;19.066;2023-04-05T06:45:11;100742.37;;;2.93;48.07
60583;BME280;46415;47.536;19.066;2023-04-05T06:48:14;100743.22;;;2.94;49.17
60583;BME280;46415;47.536;19.066;2023-04-05T06:51:17;100744.84;;;3.05;48.53
60583;BME280;46415;47.536;19.066;2023-04-05T06:54:20;100747.38;;;3.13;48.08
60583;BME280;46415;47.536;19.066;2023-04-05T06:57:24;100748.13;;;3.27;48.25
60583;BME280;46415;47.536;19.066;2023-04-05T07:00:27;100743.75;;;3.38;48.26
60583;BME280;46415;47.536;19.066;2023-04-05T07:03:29;100744.50;;;3.48;47.42
60583;BME280;46415;47.536;19.066;2023-04-05T07:06:34;100742.06;;;3.34;47.83
60583;BME280;46415;47.536;19.066;2023-04-05T07:09:40;100747.12;;;3.42;46.86
60583;BME280;46415;47.536;19.066;2023-04-05T07:12:44;100745.41;;;3.42;46.12
60583;BME280;46415;47.536;19.066;2023-04-05T07:15:47;100746.91;;;3.67;45.91
60583;BME280;46415;47.536;19.066;2023-04-05T07:18:49;100745.97;;;3.75;46.21
60583;BME280;46415;47.536;19.066;2023-04-05T07:21:52;100751.94;;;3.77;46.39
60583;BME280;46415;47.536;19.066;2023-04-05T07:24:55;100751.00;;;3.82;45.88
60583;BME280;46415;47.536;19.066;2023-04-05T07:27:58;100743.34;;;3.81;46.15
60583;BME280;46415;47.536;19.066;2023-04-05T07:31:02;100749.94;;;4.03;45.71
60583;BME280;46415;47.536;19.066;2023-04-05T07:34:05;100749.97;;;4.00;45.57
60583;BME280;46415;47.536;19.066;2023-04-05T07:37:08;100738.84;;;4.01;46.05
60583;BME280;46415;47.536;19.066;2023-04-05T07:40:11;100739.75;;;3.95;45.68
60583;BME280;46415;47.536;19.066;2023-04-05T07:43:14;100740.47;;;4.08;44.40
60583;BME280;46415;47.536;19.066;2023-04-05T07:46:16;100744.56;;;4.24;44.35
60583;BME280;46415;47.536;19.066;2023-04-05T07:49:23;100742.91;;;4.22;43.16
60583;BME280;46415;47.536;19.066;2023-04-05T07:52:25;100740.12;;;4.35;43.90
60583;BME280;46415;47.536;19.066;2023-04-05T07:55:28;100737.94;;;4.74;43.55
60583;BME280;46415;47.536;19.066;2023-04-05T07:58:31;100744.34;;;4.42;42.37
60583;BME280;46415;47.536;19.066;2023-04-05T08:01:33;100742.53;;;4.50;43.29
60583;BME280;46415;47.536;19.066;2023-04-05T08:04:36;100736.34;;;4.64;43.00
60583;BME280;46415;47.536;19.066;2023-04-05T08:07:39;100731.75;;;4.85;43.30
60583;BME280;46415;47.536;19.066;2023-04-05T08:10:43;100736.72;;;4.96;43.17
60583;BME280;46415;47.536;19.066;2023-04-05T08:13:48;100732.47;;;4.95;42.22
60583;BME280;46415;47.536;19.066;2023-04-05T08:17:09;100729.38;;;4.72;44.43
60583;BME280;46415;47.536;19.066;2023-04-05T08:20:11;100733.22;;;5.02;43.36
60583;BME280;46415;47.536;19.066;2023-04-05T08:23:15;100729.16;;;4.87;43.50
60583;BME280;46415;47.536;19.066;2023-04-05T08:26:17;100725.47;;;5.06;43.92
60583;BME280;46415;47.536;19.066;2023-04-05T08:29:21;100727.59;;;5.30;42.99
60583;BME280;46415;47.536;19.066;2023-04-05T08:32:24;100729.38;;;5.27;41.93
60583;BME280;46415;47.536;19.066;2023-04-05T08:35:26;100727.56;;;5.35;42.09
60583;BME280;46415;47.536;19.066;2023-04-05T08:38:29;100722.34;;;5.37;42.13
60583;BME280;46415;47.536;19.066;2023-04-05T08:41:35;100724.91;;;5.38;41.70
60583;BME280;46415;47.536;19.066;2023-04-05T08:44:42;100728.19;;;5.48;42.70
60583;BME280;46415;47.536;19.066;2023-04-05T08:47:45;100729.41;;;5.74;42.23
60583;BME280;46415;47.536;19.066;2023-04-05T08:50:51;100718.37;;;5.68;41.62
60583;BME280;46415;47.536;19.066;2023-04-05T08:53:54;100716.62;;;5.71;41.57
60583;BME280;46415;47.536;19.066;2023-04-05T08:56:57;100717.81;;;6.00;41.21
60583;BME280;46415;47.536;19.066;2023-04-05T09:00:01;100718.19;;;6.25;40.95
60583;BME280;46415;47.536;19.066;2023-04-05T09:03:04;100707.25;;;6.13;40.30
60583;BME280;46415;47.536;19.066;2023-04-05T09:06:07;100706.78;;;6.35;40.20
60583;BME280;46415;47.536;19.066;2023-04-05T09:09:13;100709.47;;;6.30;40.31
60583;BME280;46415;47.536;19.066;2023-04-05T09:12:16;100699.50;;;6.55;39.92
60583;BME280;46415;47.536;19.066;2023-04-05T09:15:21;100700.63;;;6.80;40.38
60583;BME280;46415;47.536;19.066;2023-04-05T09:18:26;100701.50;;;6.79;40.19
60583;BME280;46415;47.536;19.066;2023-04-05T09:21:28;100700.47;;;6.86;39.20
60583;BME280;46415;47.536;19.066;2023-04-05T09:24:33;100699.44;;;6.93;39.93
60583;BME280;46415;47.536;19.066;2023-04-05T09:27:52;100696.72;;;7.00;39.13
60583;BME280;46415;47.536;19.066;2023-04-05T09:30:55;100702.31;;;7.17;38.89
60583;BME280;46415;47.536;19.066;2023-04-05T09:33:58;100702.03;;;6.93;38.92
60583;BME280;46415;47.536;19.066;2023-04-05T09:40:17;100701.03;;;7.34;39.23
60583;BME280;46415;47.536;19.066;2023-04-05T09:43:36;100693.12;;;7.07;39.34
60583;BME280;46415;47.536;19.066;2023-04-05T09:46:39;100701.87;;;7.35;37.82
60583;BME280;46415;47.536;19.066;2023-04-05T09:49:43;100690.31;;;7.80;37.41
60583;BME280;46415;47.536;19.066;2023-04-05T09:52:46;100684.63;;;8.00;36.74
60583;BME280;46415;47.536;19.066;2023-04-05T09:55:50;100681.25;;;7.98;37.23
60583;BME280;46415;47.536;19.066;2023-04-05T09:58:56;100676.12;;;7.97;36.51
60583;BME280;46415;47.536;19.066;2023-04-05T10:01:59;100672.00;;;7.57;36.64
60583;BME280;46415;47.536;19.066;2023-04-05T10:05:06;100662.03;;;7.76;36.74
60583;BME280;46415;47.536;19.066;2023-04-05T10:08:09;100672.88;;;7.89;36.91
60583;BME280;46415;47.536;19.066;2023-04-05T10:11:12;100673.66;;;7.61;38.31
60583;BME280;46415;47.536;19.066;2023-04-05T10:14:15;100668.56;;;7.26;38.63
60583;BME280;46415;47.536;19.066;2023-04-05T10:20:21;100676.97;;;7.66;39.11
60583;BME280;46415;47.536;19.066;2023-04-05T10:23:25;100673.50;;;7.98;38.41
60583;BME280;46415;47.536;19.066;2023-04-05T10:26:36;100664.53;;;8.10;36.70
60583;BME280;46415;47.536;19.066;2023-04-05T10:42:25;100659.91;;;8.21;36.58
60583;BME280;46415;47.536;19.066;2023-04-05T10:45:28;100657.84;;;8.34;36.73
60583;BME280;46415;47.536;19.066;2023-04-05T10:51:47;100652.72;;;8.32;37.11
60583;BME280;46415;47.536;19.066;2023-04-05T10:54:50;100647.69;;;8.55;36.94
60583;BME280;46415;47.536;19.066;2023-04-05T10:57:53;100647.75;;;8.23;35.37
60583;BME280;46415;47.536;19.066;2023-04-05T11:00:57;100626.47;;;8.15;36.24
60583;BME280;46415;47.536;19.066;2023-04-05T11:04:13;100639.88;;;8.28;35.38
60583;BME280;46415;47.536;19.066;2023-04-05T11:07:16;100636.38;;;8.29;34.50
60583;BME280;46415;47.536;19.066;2023-04-05T11:10:19;100641.13;;;8.14;34.81
60583;BME280;46415;47.536;19.066;2023-04-05T11:13:22;100632.44;;;7.88;35.37
60583;BME280;46415;47.536;19.066;2023-04-05T11:16:48;100633.59;;;8.07;35.20
60583;BME280;46415;47.536;19.066;2023-04-05T11:19:58;100635.56;;;8.28;34.52
60583;BME280;46415;47.536;19.066;2023-04-05T11:23:03;100631.59;;;8.46;33.38
60583;BME280;46415;47.536;19.066;2023-04-05T11:26:06;100629.19;;;8.10;33.82
60583;BME280;46415;47.536;19.066;2023-04-05T11:29:09;100628.19;;;8.45;34.38
60583;BME280;46415;47.536;19.066;2023-04-05T11:32:12;100623.69;;;8.50;32.57
60583;BME280;46415;47.536;19.066;2023-04-05T11:35:17;100629.91;;;8.45;33.63
60583;BME280;46415;47.536;19.066;2023-04-05T11:38:26;100629.53;;;8.83;32.39
60583;BME280;46415;47.536;19.066;2023-04-05T11:41:31;100621.47;;;8.92;32.21
60583;BME280;46415;47.536;19.066;2023-04-05T11:47:43;100620.06;;;9.09;29.84
60583;BME280;46415;47.536;19.066;2023-04-05T11:50:45;100624.97;;;8.91;31.64
60583;BME280;46415;47.536;19.066;2023-04-05T11:53:48;100613.00;;;9.14;31.20
60583;BME280;46415;47.536;19.066;2023-04-05T11:56:51;100615.63;;;9.12;29.17
60583;BME280;46415;47.536;19.066;2023-04-05T11:59:54;100604.75;;;9.27;28.99
60583;BME280;46415;47.536;19.066;2023-04-05T12:02:57;100599.56;;;9.27;30.43
60583;BME280;46415;47.536;19.066;2023-04-05T12:06:00;100604.16;;;9.44;29.96
60583;BME280;46415;47.536;19.066;2023-04-05T12:09:05;100598.94;;;9.46;29.41
60583;BME280;46415;47.536;19.066;2023-04-05T12:12:15;100596.37;;;9.44;30.38
60583;BME280;46415;47.536;19.066;2023-04-05T12:15:17;100597.56;;;9.11;30.32
60583;BME280;46415;47.536;19.066;2023-04-05T12:18:20;100593.13;;;9.14;30.57
60583;BME280;46415;47.536;19.066;2023-04-05T12:21:23;100593.75;;;9.46;31.49
60583;BME280;46415;47.536;19.066;2023-04-05T12:24:26;100591.72;;;9.54;30.53
60583;BME280;46415;47.536;19.066;2023-04-05T12:27:29;100581.75;;;9.43;30.50
60583;BME280;46415;47.536;19.066;2023-04-05T12:30:32;100578.88;;;9.74;29.61
60583;BME280;46415;47.536;19.066;2023-04-05T12:33:39;100579.63;;;10.01;29.50
60583;BME280;46415;47.536;19.066;2023-04-05T12:36:42;100573.03;;;9.92;28.05
60583;BME280;46415;47.536;19.066;2023-04-05T12:39:45;100582.44;;;9.71;28.11
60583;BME280;46415;47.536;19.066;2023-04-05T12:42:48;100575.72;;;9.66;27.95
60583;BME280;46415;47.536;19.066;2023-04-05T12:45:54;100571.78;;;9.79;28.16
60583;BME280;46415;47.536;19.066;2023-04-05T12:48:58;100577.19;;;9.96;28.16
60583;BME280;46415;47.536;19.066;2023-04-05T12:52:00;100569.13;;;10.04;28.33
60583;BME280;46415;47.536;19.066;2023-04-05T12:55:13;100567.53;;;10.23;28.25
60583;BME280;46415;47.536;19.066;2023-04-05T12:58:16;100569.47;;;10.40;29.39
60583;BME280;46415;47.536;19.066;2023-04-05T13:01:19;100565.00;;;10.21;28.22
60583;BME280;46415;47.536;19.066;2023-04-05T13:04:22;100555.56;;;10.62;29.11
60583;BME280;46415;47.536;19.066;2023-04-05T13:07:27;100557.41;;;10.81;27.93
60583;BME280;46415;47.536;19.066;2023-04-05T13:10:29;100548.19;;;11.14;28.35
60583;BME280;46415;47.536;19.066;2023-04-05T13:13:32;100555.56;;;11.43;28.32
60583;BME280;46415;47.536;19.066;2023-04-05T13:16:35;100549.84;;;11.35;27.08
60583;BME280;46415;47.536;19.066;2023-04-05T13:19:38;100542.22;;;11.12;27.48
60583;BME280;46415;47.536;19.066;2023-04-05T13:22:41;100542.34;;;10.89;28.76
60583;BME280;46415;47.536;19.066;2023-04-05T13:25:44;100548.91;;;11.18;28.51
60583;BME280;46415;47.536;19.066;2023-04-05T13:28:46;100546.50;;;11.13;28.49
60583;BME280;46415;47.536;19.066;2023-04-05T13:31:49;100545.25;;;11.22;28.35
60583;BME280;46415;47.536;19.066;2023-04-05T13:34:52;100543.81;;;11.35;28.33
60583;BME280;46415;47.536;19.066;2023-04-05T13:37:55;100545.59;;;11.14;28.77
60583;BME280;46415;47.536;19.066;2023-04-05T13:40:57;100530.28;;;11.27;28.52
60583;BME280;46415;47.536;19.066;2023-04-05T13:44:00;100534.34;;;11.53;28.13
60583;BME280;46415;47.536;19.066;2023-04-05T13:47:05;100530.09;;;11.89;27.45
60583;BME280;46415;47.536;19.066;2023-04-05T13:50:08;100527.19;;;11.58;27.98
60583;BME280;46415;47.536;19.066;2023-04-05T13:53:11;100520.66;;;11.49;28.62
60583;BME280;46415;47.536;19.066;2023-04-05T13:56:13;100526.56;;;11.53;28.17
60583;BME280;46415;47.536;19.066;2023-04-05T13:59:16;100524.25;;;11.65;28.37
60583;BME280;46415;47.536;19.066;2023-04-05T14:02:21;100528.34;;;11.90;28.04
60583;BME280;46415;47.536;19.066;2023-04-05T14:05:27;100532.53;;;11.55;28.33
60583;BME280;46415;47.536;19.066;2023-04-05T14:08:29;100523.78;;;11.76;27.89
60583;BME280;46415;47.536;19.066;2023-04-05T14:11:32;100525.75;;;11.90;27.81
60583;BME280;46415;47.536;19.066;2023-04-05T14:14:35;100518.41;;;11.60;26.51
60583;BME280;46415;47.536;19.066;2023-04-05T14:17:38;100515.56;;;11.27;26.99
60583;BME280;46415;47.536;19.066;2023-04-05T14:20:40;100515.31;;;11.52;27.61
60583;BME280;46415;47.536;19.066;2023-04-05T14:23:44;100519.00;;;11.85;27.14
60583;BME280;46415;47.536;19.066;2023-04-05T14:26:47;100519.50;;;12.64;26.55
60583;BME280;46415;47.536;19.066;2023-04-05T14:29:52;100512.53;;;12.64;26.39
60583;BME280;46415;47.536;19.066;2023-04-05T14:32:58;100517.59;;;13.02;25.85
60583;BME280;46415;47.536;19.066;2023-04-05T14:36:01;100517.34;;;13.57;25.21
60583;BME280;46415;47.536;19.066;2023-04-05T14:39:03;100512.88;;;14.21;24.23
60583;BME280;46415;47.536;19.066;2023-04-05T14:42:06;100515.81;;;14.77;23.39
60583;BME280;46415;47.536;19.066;2023-04-05T14:45:09;100512.03;;;15.25;24.04
60583;BME280;46415;47.536;19.066;2023-04-05T14:48:12;100511.19;;;16.08;22.10
60583;BME280;46415;47.536;19.066;2023-04-05T14:51:14;100522.41;;;16.76;21.37
60583;BME280;46415;47.536;19.066;2023-04-05T14:54:17;100523.16;;;16.78;21.33
60583;BME280;46415;47.536;19.066;2023-04-05T14:57:20;100523.19;;;16.91;21.07
60583;BME280;46415;47.536;19.066;2023-04-05T15:00:23;100517.59;;;17.46;21.20
60583;BME280;46415;47.536;19.066;2023-04-05T15:03:25;100515.06;;;17.70;20.37
60583;BME280;46415;47.536;19.066;2023-04-05T15:06:28;100522.00;;;18.07;19.81
60583;BME280;46415;47.536;19.066;2023-04-05T15:09:31;100516.47;;;17.99;20.53
60583;BME280;46415;47.536;19.066;2023-04-05T15:12:34;100520.16;;;18.20;20.11
60583;BME280;46415;47.536;19.066;2023-04-05T15:15:37;100523.34;;;18.13;20.21
60583;BME280;46415;47.536;19.066;2023-04-05T15:18:42;100521.66;;;18.12;19.97
60583;BME280;46415;47.536;19.066;2023-04-05T15:21:45;100527.88;;;18.34;20.14
60583;BME280;46415;47.536;19.066;2023-04-05T15:24:48;100521.38;;;17.54;20.26
60583;BME280;46415;47.536;19.066;2023-04-05T15:27:50;100521.50;;;16.50;21.87
60583;BME280;46415;47.536;19.066;2023-04-05T15:30:53;100522.63;;;16.46;21.65
60583;BME280;46415;47.536;19.066;2023-04-05T15:33:56;100525.78;;;17.29;21.39
60583;BME280;46415;47.536;19.066;2023-04-05T15:37:00;100531.78;;;17.56;21.19
60583;BME280;46415;47.536;19.066;2023-04-05T15:40:02;100532.69;;;17.80;20.03
60583;BME280;46415;47.536;19.066;2023-04-05T15:43:06;100531.13;;;17.52;20.05
60583;BME280;46415;47.536;19.066;2023-04-05T15:46:08;100529.06;;;17.58;19.61
60583;BME280;46415;47.536;19.066;2023-04-05T15:49:11;100527.53;;;17.91;20.14
60583;BME280;46415;47.536;19.066;2023-04-05T15:52:17;100529.44;;;17.77;19.75
60583;BME280;46415;47.536;19.066;2023-04-05T15:55:20;100529.66;;;18.10;18.84
60583;BME280;46415;47.536;19.066;2023-04-05T15:58:22;100529.06;;;17.94;19.18
60583;BME280;46415;47.536;19.066;2023-04-05T16:01:25;100531.84;;;18.64;19.05
60583;BME280;46415;47.536;19.066;2023-04-05T16:04:28;100529.84;;;17.83;19.11
60583;BME280;46415;47.536;19.066;2023-04-05T16:07:31;100535.69;;;17.25;19.82
60583;BME280;46415;47.536;19.066;2023-04-05T16:10:34;100526.94;;;16.74;19.79
60583;BME280;46415;47.536;19.066;2023-04-05T16:13:38;100530.75;;;16.56;20.01
60583;BME280;46415;47.536;19.066;2023-04-05T16:16:41;100534.94;;;14.91;21.12
60583;BME280;46415;47.536;19.066;2023-04-05T16:19:55;100534.91;;;14.31;23.20
60583;BME280;46415;47.536;19.066;2023-04-05T16:22:58;100536.94;;;14.26;23.20
60583;BME280;46415;47.536;19.066;2023-04-05T16:26:01;100538.13;;;14.52;23.57
60583;BME280;46415;47.536;19.066;2023-04-05T16:29:05;100529.59;;;14.79;21.89
60583;BME280;46415;47.536;19.066;2023-04-05T16:32:08;100532.06;;;14.66;21.95
60583;BME280;46415;47.536;19.066;2023-04-05T16:35:10;100534.59;;;14.38;22.40